Time;durP1;ratioP1;P1;durP2;ratioP2;P2;SDS_P1;SDS_P2;PMS_P1;PMS_P2;Temp;Humidity;BMP_temperature;BMP_pressure;BME280_temperature;BME280_humidity;BME280_pressure;Samples;Min_cycle;Max_cycle;Signal;HPM_P1;HPM_P2
2023/05/30 00:00:14;;;;;;;8.93;2.53;;;11.60;99.90;;;;;;5113866;27;21033;-88
2023/05/30 00:02:43;;;;;;;12.30;2.93;;;11.70;99.90;;;;;;5131713;27;20476;-89
2023/05/30 00:05:09;;;;;;;9.75;3.22;;;11.70;99.90;;;;;;5113554;27;20914;-88
2023/05/30 00:07:36;;;;;;;8.23;2.47;;;11.60;99.90;;;;;;5114419;27;20401;-88
2023/05/30 00:10:01;;;;;;;9.70;2.72;;;11.70;99.90;;;;;;5113882;27;20496;-86
2023/05/30 00:12:27;;;;;;;10.00;2.60;;;11.90;99.90;;;;;;5130695;27;20417;-88
2023/05/30 00:14:55;;;;;;;10.80;2.50;;;11.70;99.90;;;;;;5114153;27;20406;-87
2023/05/30 00:17:21;;;;;;;8.90;2.97;;;11.70;99.90;;;;;;5113347;27;20833;-87
2023/05/30 00:19:47;;;;;;;10.68;3.22;;;11.70;99.90;;;;;;5113994;27;20574;-87
2023/05/30 00:22:14;;;;;;;9.82;2.67;;;11.80;99.90;;;;;;5113196;27;20927;-87
2023/05/30 00:24:39;;;;;;;9.63;2.85;;;11.70;99.90;;;;;;5113781;27;20467;-87
2023/05/30 00:27:05;;;;;;;9.43;2.43;;;11.70;99.90;;;;;;5130552;27;20875;-87
2023/05/30 00:29:31;;;;;;;10.10;2.63;;;11.60;99.90;;;;;;5113863;27;20404;-86
2023/05/30 00:31:58;;;;;;;11.63;3.15;;;11.60;99.90;;;;;;5113564;27;20424;-88
2023/05/30 00:34:23;;;;;;;12.30;2.93;;;11.50;99.90;;;;;;5113331;27;20454;-88
2023/05/30 00:36:49;;;;;;;10.13;2.80;;;11.50;99.90;;;;;;5113687;27;20389;-88
2023/05/30 00:39:15;;;;;;;11.73;2.88;;;11.60;99.90;;;;;;5112950;27;20906;-87
2023/05/30 00:41:41;;;;;;;11.17;2.90;;;11.60;99.90;;;;;;5131269;27;20747;-87
2023/05/30 00:44:07;;;;;;;10.00;3.07;;;11.60;99.90;;;;;;5112859;27;20426;-87
2023/05/30 00:46:32;;;;;;;10.45;2.92;;;11.60;99.90;;;;;;5114037;27;20393;-86
2023/05/30 00:48:59;;;;;;;10.93;2.67;;;11.60;99.90;;;;;;5113041;27;20393;-86
2023/05/30 00:51:28;;;;;;;8.80;2.53;;;11.90;99.90;;;;;;5113114;27;20453;-87
2023/05/30 00:53:55;;;;;;;11.98;3.53;;;11.60;99.90;;;;;;5113246;27;20407;-87
2023/05/30 00:56:23;;;;;;;11.38;2.60;;;11.80;99.90;;;;;;5130105;27;20471;-89
2023/05/30 00:58:50;;;;;;;10.18;2.85;;;11.40;99.90;;;;;;5130797;27;20397;-87
2023/05/30 01:01:15;;;;;;;10.30;2.78;;;11.60;99.90;;;;;;5129655;27;20424;-87
2023/05/30 01:03:42;;;;;;;9.27;2.80;;;11.60;99.90;;;;;;5113388;27;20396;-88
2023/05/30 01:06:09;;;;;;;11.63;3.00;;;11.60;99.90;;;;;;5129724;27;20790;-87
2023/05/30 01:08:34;;;;;;;9.00;2.38;;;11.60;99.90;;;;;;5130441;27;20404;-87
2023/05/30 01:11:28;;;;;;;8.82;2.67;;;11.50;99.90;;;;;;5129902;27;20397;-88
2023/05/30 01:14:26;;;;;;;9.82;2.47;;;11.50;99.90;;;;;;5112208;27;20484;-88
2023/05/30 01:17:13;;;;;;;9.37;2.80;;;11.60;99.90;;;;;;5091566;27;20405;-87
2023/05/30 01:20:07;;;;;;;8.32;2.30;;;11.50;99.90;;;;;;5129689;27;20453;-87
2023/05/30 01:23:04;;;;;;;9.60;2.70;;;11.60;99.90;;;;;;5111815;27;20978;-87
2023/05/30 01:25:54;;;;;;;10.68;2.72;;;11.60;99.90;;;;;;5112893;27;20934;-87
2023/05/30 01:28:22;;;;;;;8.05;2.13;;;11.60;99.90;;;;;;5112631;27;20412;-88
2023/05/30 01:30:52;;;;;;;11.30;2.20;;;11.60;99.90;;;;;;5129339;27;20785;-88
2023/05/30 01:33:21;;;;;;;8.77;2.38;;;11.60;99.90;;;;;;5112733;27;20444;-87
2023/05/30 01:35:48;;;;;;;9.77;3.00;;;11.60;99.90;;;;;;5128625;27;20462;-87
2023/05/30 01:38:15;;;;;;;8.57;2.80;;;11.60;99.90;;;;;;5129880;27;20461;-89
2023/05/30 01:40:47;;;;;;;8.07;2.37;;;11.60;99.90;;;;;;5111857;27;20500;-86
2023/05/30 01:43:37;;;;;;;10.85;3.20;;;11.50;99.90;;;;;;5112195;27;20545;-87
2023/05/30 01:46:25;;;;;;;8.45;2.58;;;11.50;99.90;;;;;;5112105;27;20504;-86
2023/05/30 01:49:17;;;;;;;9.48;2.83;;;11.50;99.90;;;;;;5112073;27;20405;-87
2023/05/30 01:52:00;;;;;;;11.05;3.13;;;11.50;99.90;;;;;;5129610;27;20737;-87
2023/05/30 01:54:30;;;;;;;11.23;2.80;;;11.50;99.90;;;;;;5111980;27;20492;-88
2023/05/30 01:57:02;;;;;;;11.50;2.60;;;11.50;99.90;;;;;;5147284;27;20385;-87
2023/05/30 01:59:30;;;;;;;10.57;2.97;;;11.50;99.90;;;;;;5129165;27;20459;-87
2023/05/30 02:01:56;;;;;;;13.18;3.40;;;11.50;99.90;;;;;;5128497;27;20439;-88
2023/05/30 02:04:24;;;;;;;12.65;3.00;;;11.50;99.90;;;;;;5129124;27;20479;-87
2023/05/30 02:06:50;;;;;;;9.87;2.80;;;11.50;99.90;;;;;;5128600;27;20397;-87
2023/05/30 02:09:16;;;;;;;11.20;2.67;;;11.50;99.90;;;;;;5129194;27;20408;-89
2023/05/30 02:11:41;;;;;;;9.77;2.70;;;11.50;99.90;;;;;;5111792;27;20393;-87
2023/05/30 02:14:07;;;;;;;9.48;2.83;;;11.60;99.90;;;;;;5128400;27;20914;-88
2023/05/30 02:16:33;;;;;;;12.23;3.03;;;11.80;99.90;;;;;;5111771;27;20412;-87
2023/05/30 02:19:00;;;;;;;10.93;2.67;;;11.70;99.90;;;;;;5128378;27;20389;-88
2023/05/30 02:21:25;;;;;;;10.48;2.92;;;11.60;99.90;;;;;;5128753;27;20401;-87
2023/05/30 02:23:51;;;;;;;13.23;3.20;;;11.60;99.90;;;;;;5128092;27;20772;-86
2023/05/30 02:26:17;;;;;;;12.47;3.47;;;11.50;99.90;;;;;;5129247;27;20492;-87
2023/05/30 02:28:42;;;;;;;13.43;4.03;;;11.70;99.90;;;;;;5128874;27;20393;-86
2023/05/30 02:31:08;;;;;;;12.93;3.57;;;11.50;99.90;;;;;;5111359;27;20416;-86
2023/05/30 02:33:33;;;;;;;14.40;3.55;;;11.50;99.90;;;;;;5128782;27;20439;-87
2023/05/30 02:35:59;;;;;;;10.83;3.17;;;11.50;99.90;;;;;;5115546;27;20405;-88
2023/05/30 02:38:25;;;;;;;11.25;3.50;;;11.50;99.90;;;;;;5116272;27;20389;-86
2023/05/30 02:40:51;;;;;;;11.45;3.63;;;11.50;99.90;;;;;;5132065;27;20435;-87
2023/05/30 02:43:16;;;;;;;12.80;3.77;;;11.50;99.90;;;;;;5133798;27;20401;-87
2023/05/30 02:45:42;;;;;;;13.43;3.45;;;11.60;99.90;;;;;;5132432;27;20396;-87
2023/05/30 02:48:08;;;;;;;10.10;2.90;;;11.50;99.90;;;;;;5133326;27;20423;-88
2023/05/30 02:50:34;;;;;;;13.05;3.65;;;11.50;99.90;;;;;;5132961;27;20710;-88
2023/05/30 02:52:59;;;;;;;14.10;3.10;;;11.50;99.90;;;;;;5132465;27;20411;-88
2023/05/30 02:55:26;;;;;;;12.20;3.15;;;11.50;99.90;;;;;;5132814;27;20763;-88
2023/05/30 02:57:51;;;;;;;11.75;3.40;;;11.50;99.90;;;;;;5114946;27;20405;-88
2023/05/30 03:00:17;;;;;;;13.23;3.40;;;11.60;99.90;;;;;;5132957;27;20756;-87
2023/05/30 03:02:43;;;;;;;11.65;2.88;;;11.60;99.90;;;;;;5132432;27;20393;-87
2023/05/30 03:05:10;;;;;;;11.60;3.40;;;11.90;99.90;;;;;;5132676;27;20917;-89
2023/05/30 03:07:36;;;;;;;14.37;3.43;;;11.50;99.90;;;;;;5132463;27;20440;-87
2023/05/30 03:10:03;;;;;;;14.57;3.15;;;11.60;99.90;;;;;;5115008;27;20499;-87
2023/05/30 03:12:29;;;;;;;11.13;3.00;;;11.60;99.90;;;;;;5132616;27;20397;-87
2023/05/30 03:14:55;;;;;;;12.17;3.50;;;11.60;99.90;;;;;;5131840;27;20397;-87
2023/05/30 03:17:21;;;;;;;14.30;3.80;;;11.70;99.90;;;;;;5115581;27;20397;-87
2023/05/30 03:19:47;;;;;;;13.80;4.07;;;11.80;99.90;;;;;;5150511;27;20864;-84
2023/05/30 03:22:13;;;;;;;11.40;3.50;;;11.60;99.90;;;;;;5115511;27;20436;-87
2023/05/30 03:24:39;;;;;;;11.43;2.78;;;11.50;99.90;;;;;;5114758;27;20404;-86
2023/05/30 03:27:05;;;;;;;9.98;2.90;;;11.60;99.90;;;;;;5132314;27;20457;-87
2023/05/30 03:29:31;;;;;;;11.85;3.45;;;11.60;99.90;;;;;;5114775;27;20381;-87
2023/05/30 03:31:57;;;;;;;10.35;3.13;;;11.60;99.90;;;;;;5114677;27;20476;-87
2023/05/30 03:34:22;;;;;;;12.23;3.37;;;11.70;99.90;;;;;;5114876;27;20425;-87
2023/05/30 03:36:52;;;;;;;10.25;3.38;;;11.70;99.90;;;;;;5131306;27;20895;-87
2023/05/30 03:39:18;;;;;;;11.73;3.45;;;11.60;99.90;;;;;;5131967;27;20404;-88
2023/05/30 03:41:44;;;;;;;10.30;2.95;;;11.60;99.90;;;;;;5113885;27;20397;-86
2023/05/30 03:44:10;;;;;;;9.90;3.10;;;11.60;99.90;;;;;;5132430;27;20892;-87
2023/05/30 03:46:35;;;;;;;12.37;2.93;;;11.60;99.90;;;;;;5113730;27;20476;-87
2023/05/30 03:49:01;;;;;;;12.10;3.38;;;11.90;99.90;;;;;;5131380;27;20405;-87
2023/05/30 03:51:27;;;;;;;10.45;2.92;;;12.10;99.90;;;;;;5131647;27;20763;-87
2023/05/30 03:53:52;;;;;;;13.73;3.63;;;11.70;99.90;;;;;;5131616;27;20829;-87
2023/05/30 03:56:18;;;;;;;12.00;3.33;;;11.70;99.90;;;;;;5114625;27;20401;-88
2023/05/30 03:58:44;;;;;;;10.13;2.87;;;11.70;99.90;;;;;;5114063;27;20401;-87
2023/05/30 04:01:10;;;;;;;12.75;3.15;;;11.80;99.90;;;;;;5114517;27;20566;-87
2023/05/30 04:03:37;;;;;;;13.87;3.60;;;11.80;99.90;;;;;;5130900;27;20397;-87
2023/05/30 04:06:05;;;;;;;11.43;3.22;;;11.80;99.90;;;;;;5113971;27;20401;-87
2023/05/30 04:08:31;;;;;;;13.40;3.43;;;11.90;99.90;;;;;;5131176;27;20401;-86
2023/05/30 04:10:57;;;;;;;12.00;3.77;;;11.90;99.90;;;;;;5130784;27;20400;-88
2023/05/30 04:13:22;;;;;;;12.98;3.65;;;11.90;99.90;;;;;;5131174;27;20942;-87
2023/05/30 04:15:48;;;;;;;13.57;3.53;;;12.30;99.90;;;;;;5130675;27;20393;-87
2023/05/30 04:18:14;;;;;;;11.80;3.80;;;12.00;99.90;;;;;;5131365;27;20544;-87
2023/05/30 04:20:40;;;;;;;12.40;3.45;;;12.00;99.90;;;;;;5130413;27;20428;-86
2023/05/30 04:23:06;;;;;;;15.50;4.43;;;12.40;99.90;;;;;;5114346;27;20392;-87
2023/05/30 04:25:32;;;;;;;14.18;4.00;;;12.10;99.90;;;;;;5130456;27;20455;-87
2023/05/30 04:27:58;;;;;;;12.95;4.18;;;12.10;99.90;;;;;;5113389;27;20397;-88
2023/05/30 04:30:24;;;;;;;13.65;3.58;;;12.10;99.90;;;;;;5131256;27;20739;-87
2023/05/30 04:32:50;;;;;;;12.47;3.77;;;12.10;99.90;;;;;;5130440;27;20385;-88
2023/05/30 04:35:15;;;;;;;10.48;3.38;;;12.10;99.90;;;;;;5113517;27;20430;-87
2023/05/30 04:37:44;;;;;;;9.88;3.53;;;12.20;99.90;;;;;;5130468;27;20404;-87
2023/05/30 04:40:12;;;;;;;11.00;3.47;;;12.60;99.90;;;;;;5130778;27;20457;-87
2023/05/30 04:42:38;;;;;;;9.90;3.08;;;12.20;99.90;;;;;;5130431;27;20721;-87
2023/05/30 04:45:05;;;;;;;11.75;3.10;;;12.30;99.90;;;;;;5113255;27;20895;-87
2023/05/30 04:47:30;;;;;;;11.40;2.70;;;12.20;99.90;;;;;;5113386;27;20393;-87
2023/05/30 04:50:00;;;;;;;11.30;2.47;;;12.20;99.90;;;;;;5113130;27;20407;-87
2023/05/30 04:52:26;;;;;;;9.73;2.40;;;12.30;99.90;;;;;;5130447;27;20514;-87
2023/05/30 04:54:52;;;;;;;9.50;2.88;;;12.30;99.90;;;;;;5129811;27;20397;-87
2023/05/30 04:57:18;;;;;;;10.07;2.70;;;12.20;99.90;;;;;;5113348;27;20493;-87
2023/05/30 04:59:44;;;;;;;7.63;2.30;;;12.20;99.90;;;;;;5130210;27;20424;-86
2023/05/30 05:02:10;;;;;;;11.20;2.88;;;12.20;99.90;;;;;;5130706;27;20393;-87
2023/05/30 05:04:36;;;;;;;9.60;2.25;;;12.20;99.90;;;;;;5129811;27;20403;-87
2023/05/30 05:07:02;;;;;;;8.60;2.40;;;12.10;99.90;;;;;;5129810;27;20424;-87
2023/05/30 05:09:28;;;;;;;8.43;2.35;;;12.10;99.90;;;;;;5113488;27;20444;-88
2023/05/30 05:11:54;;;;;;;8.63;2.03;;;12.20;99.90;;;;;;5112478;27;20401;-87
2023/05/30 05:14:20;;;;;;;8.50;2.23;;;12.20;99.90;;;;;;5130064;27;20393;-88
2023/05/30 05:16:45;;;;;;;6.87;1.80;;;12.20;99.90;;;;;;5129910;27;20737;-88
2023/05/30 05:19:11;;;;;;;7.15;1.90;;;12.50;99.90;;;;;;5113013;27;20795;-89
2023/05/30 05:21:37;;;;;;;6.63;2.00;;;12.20;99.90;;;;;;5112888;27;20407;-88
2023/05/30 05:24:03;;;;;;;5.70;1.73;;;12.30;99.90;;;;;;5112973;27;20512;-88
2023/05/30 05:26:29;;;;;;;6.32;1.58;;;12.40;99.90;;;;;;5112357;27;20397;-88
2023/05/30 05:28:57;;;;;;;7.57;1.77;;;12.40;99.90;;;;;;5129810;27;20412;-88
2023/05/30 05:31:23;;;;;;;7.20;1.80;;;12.40;99.90;;;;;;5130028;27;20484;-88
2023/05/30 05:33:48;;;;;;;6.10;1.50;;;12.40;99.90;;;;;;5112156;27;20389;-88
2023/05/30 05:36:14;;;;;;;7.00;1.47;;;12.50;99.90;;;;;;5112822;27;20438;-87
2023/05/30 05:38:40;;;;;;;7.78;1.98;;;12.50;99.90;;;;;;5112521;27;20414;-88
2023/05/30 05:41:06;;;;;;;8.10;1.77;;;12.70;99.90;;;;;;5129629;27;20421;-87
2023/05/30 05:43:31;;;;;;;5.97;2.00;;;12.50;99.90;;;;;;5129248;27;20397;-87
2023/05/30 05:45:57;;;;;;;6.72;1.88;;;12.70;99.90;;;;;;5112218;27;20470;-88
2023/05/30 05:48:23;;;;;;;6.55;2.15;;;12.50;99.90;;;;;;5129382;27;20401;-87
2023/05/30 05:50:48;;;;;;;6.43;1.97;;;12.60;99.90;;;;;;5128931;27;20408;-87
2023/05/30 05:53:14;;;;;;;7.30;2.03;;;12.60;99.90;;;;;;5129591;27;20389;-88
2023/05/30 05:55:39;;;;;;;8.10;2.60;;;12.70;99.90;;;;;;5128955;27;20438;-88
2023/05/30 05:58:05;;;;;;;7.43;2.20;;;12.70;99.90;;;;;;5112822;27;20401;-86
2023/05/30 06:00:32;;;;;;;6.80;1.67;;;12.90;99.90;;;;;;5128965;27;20412;-88
2023/05/30 06:02:58;;;;;;;6.93;1.30;;;12.80;99.90;;;;;;5111930;27;20422;-88
2023/05/30 06:05:24;;;;;;;5.95;1.23;;;12.80;99.90;;;;;;5112157;27;20754;-88
2023/05/30 06:07:50;;;;;;;7.05;1.55;;;12.80;99.90;;;;;;5111784;27;20487;-87
2023/05/30 06:10:16;;;;;;;7.35;1.48;;;12.80;99.90;;;;;;5128610;27;20404;-87
2023/05/30 06:12:42;;;;;;;5.78;1.23;;;12.80;99.90;;;;;;5128408;27;20397;-87
2023/05/30 06:15:08;;;;;;;4.60;1.00;;;12.90;99.90;;;;;;5129193;27;20438;-87
2023/05/30 06:17:34;;;;;;;5.53;1.10;;;12.90;99.90;;;;;;5129013;27;20737;-87
2023/05/30 06:20:01;;;;;;;7.47;1.23;;;13.30;99.90;;;;;;5112027;27;20425;-88
2023/05/30 06:22:26;;;;;;;5.57;1.30;;;13.20;99.90;;;;;;5128621;27;20472;-87
2023/05/30 06:24:52;;;;;;;5.30;1.02;;;13.00;99.90;;;;;;5128493;27;20496;-87
2023/05/30 06:27:18;;;;;;;5.60;1.40;;;12.90;99.90;;;;;;5129082;27;20408;-87
2023/05/30 06:29:43;;;;;;;5.63;1.38;;;12.90;99.90;;;;;;5111006;27;20480;-88
2023/05/30 06:32:09;;;;;;;7.27;1.50;;;13.00;99.90;;;;;;5129263;27;20405;-87
2023/05/30 06:34:35;;;;;;;7.65;1.30;;;13.20;99.90;;;;;;5111102;27;20408;-87
2023/05/30 06:37:00;;;;;;;6.43;1.57;;;13.20;99.90;;;;;;5111897;27;20459;-87
2023/05/30 06:39:26;;;;;;;5.68;1.05;;;13.30;99.90;;;;;;5128397;27;20443;-87
2023/05/30 06:41:52;;;;;;;4.30;0.80;;;13.60;99.90;;;;;;5129140;27;20449;-88
2023/05/30 06:44:17;;;;;;;3.40;0.90;;;13.30;99.90;;;;;;5111754;27;20931;-87
2023/05/30 06:46:44;;;;;;;4.80;0.80;;;13.50;99.90;;;;;;5128354;27;20393;-88
2023/05/30 06:49:09;;;;;;;4.30;0.80;;;13.30;99.90;;;;;;5111837;27;20401;-88
2023/05/30 06:51:36;;;;;;;4.25;0.95;;;13.30;99.90;;;;;;5111521;27;20705;-88
2023/05/30 06:54:02;;;;;;;4.82;0.70;;;13.30;99.90;;;;;;5128768;27;20408;-87
2023/05/30 06:56:27;;;;;;;5.55;1.40;;;13.30;99.90;;;;;;5127967;27;20393;-87
2023/05/30 06:58:54;;;;;;;3.90;0.93;;;13.30;99.90;;;;;;5112401;27;20396;-88
2023/05/30 07:01:20;;;;;;;4.45;1.10;;;13.70;99.90;;;;;;5128226;27;20448;-86
2023/05/30 07:03:46;;;;;;;2.65;0.60;;;13.30;99.90;;;;;;5128240;27;20389;-87
2023/05/30 07:06:12;;;;;;;2.60;0.77;;;13.30;99.90;;;;;;5128474;27;20397;-88
2023/05/30 07:08:38;;;;;;;4.15;1.10;;;13.20;99.90;;;;;;5111032;27;20470;-88
2023/05/30 07:11:04;;;;;;;4.07;1.00;;;13.40;99.90;;;;;;5111428;27;20404;-88
2023/05/30 07:13:30;;;;;;;6.55;1.10;;;13.30;99.90;;;;;;5110672;27;20397;-87
2023/05/30 07:15:55;;;;;;;4.68;1.10;;;13.30;99.90;;;;;;5128836;27;20768;-86
2023/05/30 07:18:21;;;;;;;5.73;1.00;;;13.30;99.90;;;;;;5128251;27;20401;-88
2023/05/30 07:20:46;;;;;;;6.63;1.23;;;13.20;99.90;;;;;;5111868;27;20474;-88
2023/05/30 07:23:12;;;;;;;5.27;1.30;;;13.20;99.90;;;;;;5115017;27;20397;-88
2023/05/30 07:25:37;;;;;;;5.00;1.30;;;13.20;99.90;;;;;;5114620;27;20411;-88
2023/05/30 07:28:03;;;;;;;4.93;1.30;;;13.30;99.90;;;;;;5115558;27;20393;-88
2023/05/30 07:30:29;;;;;;;5.03;1.52;;;13.30;99.90;;;;;;5114390;27;20478;-88
2023/05/30 07:32:55;;;;;;;3.93;1.30;;;13.40;99.90;;;;;;5115388;27;20397;-88
2023/05/30 07:35:21;;;;;;;4.55;1.10;;;13.50;99.90;;;;;;5114893;27;20397;-88
2023/05/30 07:37:46;;;;;;;5.75;1.10;;;13.50;99.90;;;;;;5115002;27;20404;-89
2023/05/30 07:40:17;;;;;;;5.03;1.10;;;13.60;99.90;;;;;;5131774;27;20678;-87
2023/05/30 07:42:42;;;;;;;4.03;0.75;;;13.60;99.90;;;;;;5132017;27;20789;-87
2023/05/30 07:45:08;;;;;;;5.63;1.40;;;13.60;99.90;;;;;;5114783;27;20397;-87
2023/05/30 07:47:34;;;;;;;3.13;0.85;;;13.70;99.90;;;;;;5114249;27;20405;-88
2023/05/30 07:50:00;;;;;;;3.95;0.70;;;13.70;99.90;;;;;;5131799;27;20983;-88
2023/05/30 07:52:26;;;;;;;5.00;0.70;;;14.10;99.90;;;;;;5114391;27;20507;-88
2023/05/30 07:54:51;;;;;;;2.63;0.60;;;13.90;99.90;;;;;;5131832;27;20397;-88
2023/05/30 07:57:17;;;;;;;4.10;0.80;;;13.90;99.90;;;;;;5114190;27;20438;-87
2023/05/30 07:59:43;;;;;;;2.90;0.52;;;13.90;99.90;;;;;;5131610;27;21030;-88
2023/05/30 08:02:09;;;;;;;3.83;0.80;;;14.10;99.90;;;;;;5114327;27;20492;-87
2023/05/30 08:04:35;;;;;;;4.10;0.60;;;14.20;99.90;;;;;;5131489;27;20393;-87
2023/05/30 08:07:02;;;;;;;4.32;0.80;;;14.20;99.90;;;;;;5131446;27;20389;-88
2023/05/30 08:09:29;;;;;;;2.58;0.55;;;14.20;99.90;;;;;;5131042;27;20424;-87
2023/05/30 08:11:55;;;;;;;3.50;0.60;;;14.20;99.90;;;;;;5114438;27;20404;-88
2023/05/30 08:14:20;;;;;;;2.80;0.60;;;14.30;99.90;;;;;;5114026;27;20420;-88
2023/05/30 08:16:46;;;;;;;3.38;0.70;;;14.40;99.90;;;;;;5114380;27;20411;-88
2023/05/30 08:19:12;;;;;;;1.93;0.40;;;14.50;99.90;;;;;;5114035;27;20402;-86
2023/05/30 08:21:37;;;;;;;2.17;0.40;;;14.60;99.90;;;;;;5114202;27;20401;-88
2023/05/30 08:24:03;;;;;;;2.25;0.30;;;14.70;99.90;;;;;;5113958;27;20443;-88
2023/05/30 08:26:31;;;;;;;1.27;0.20;;;14.70;99.90;;;;;;5113602;27;20407;-88
2023/05/30 08:28:58;;;;;;;2.10;0.20;;;14.90;99.90;;;;;;5114313;27;20787;-87
2023/05/30 08:31:24;;;;;;;1.45;0.20;;;15.00;99.90;;;;;;5130529;27;20405;-88
2023/05/30 08:33:50;;;;;;;0.57;0.10;;;15.10;99.90;;;;;;5131227;27;20907;-88
2023/05/30 08:36:16;;;;;;;1.40;0.20;;;15.20;99.90;;;;;;5113526;27;20496;-87
2023/05/30 08:38:42;;;;;;;1.60;0.20;;;15.40;99.90;;;;;;5149520;27;20388;-88
2023/05/30 08:41:07;;;;;;;0.50;0.10;;;15.20;99.90;;;;;;5130585;27;20424;-87
2023/05/30 08:43:33;;;;;;;0.80;0.20;;;15.40;99.90;;;;;;5130099;27;20977;-90
2023/05/30 08:46:00;;;;;;;0.90;0.10;;;15.90;99.90;;;;;;5113828;27;20743;-87
2023/05/30 08:48:31;;;;;;;1.42;0.20;;;16.10;99.90;;;;;;5130780;27;20717;-88
2023/05/30 08:50:57;;;;;;;1.67;0.10;;;16.40;99.90;;;;;;5113752;27;20408;-89
2023/05/30 08:53:36;;;;;;;1.08;0.10;;;16.10;99.90;;;;;;5130156;27;20397;-88
2023/05/30 08:56:07;;;;;;;1.83;0.30;;;16.00;99.90;;;;;;5130543;27;20393;-88
2023/05/30 08:58:40;;;;;;;0.90;0.10;;;16.00;99.90;;;;;;5130571;27;20779;-88
2023/05/30 09:01:06;;;;;;;1.40;0.10;;;16.00;99.90;;;;;;5112571;27;20428;-88
2023/05/30 09:03:35;;;;;;;1.35;0.10;;;16.50;99.90;;;;;;5130686;27;20914;-89
2023/05/30 09:06:02;;;;;;;0.63;0.10;;;16.20;99.90;;;;;;5112798;27;20497;-88
2023/05/30 09:08:29;;;;;;;0.70;0.10;;;16.10;99.90;;;;;;5113563;27;20397;-87
2023/05/30 09:10:56;;;;;;;0.70;0.30;;;16.10;99.90;;;;;;5129731;27;20401;-88
2023/05/30 09:13:22;;;;;;;1.15;0.20;;;16.00;99.90;;;;;;5112926;27;20403;-88
2023/05/30 09:15:47;;;;;;;1.35;0.30;;;16.00;99.90;;;;;;5130131;27;20491;-88
2023/05/30 09:18:13;;;;;;;1.20;0.30;;;15.90;99.90;;;;;;5112693;27;20409;-88
2023/05/30 09:20:39;;;;;;;1.00;0.20;;;15.90;99.90;;;;;;5129986;27;20795;-88
2023/05/30 09:23:06;;;;;;;1.73;0.20;;;15.80;99.90;;;;;;5129404;27;20408;-87
2023/05/30 09:25:46;;;;;;;1.05;0.10;;;16.10;99.90;;;;;;5112650;27;20947;-87
2023/05/30 09:28:13;;;;;;;0.83;0.10;;;15.70;99.90;;;;;;5112245;27;20408;-87
2023/05/30 09:31:00;;;;;;;1.65;0.10;;;15.70;99.90;;;;;;5112991;27;20409;-87
2023/05/30 09:33:47;;;;;;;1.27;0.10;;;15.70;99.90;;;;;;5129438;27;20412;-88
2023/05/30 09:36:18;;;;;;;1.55;0.20;;;15.50;99.90;;;;;;5112260;27;20837;-88
2023/05/30 09:38:53;;;;;;;1.55;0.32;;;15.50;99.90;;;;;;5113096;27;20409;-88
2023/05/30 09:41:20;;;;;;;1.58;0.30;;;15.40;99.90;;;;;;5129165;27;20808;-88
2023/05/30 09:43:52;;;;;;;2.75;0.28;;;15.20;99.90;;;;;;5111713;27;20425;-87
2023/05/30 09:46:19;;;;;;;1.00;0.20;;;15.40;99.90;;;;;;5129774;27;20437;-88
2023/05/30 09:48:45;;;;;;;1.67;0.20;;;14.90;99.90;;;;;;5111699;27;20397;-88
2023/05/30 09:51:11;;;;;;;0.83;0.20;;;15.20;99.90;;;;;;5129361;27;20403;-88
2023/05/30 09:53:37;;;;;;;1.17;0.22;;;15.50;99.90;;;;;;5111712;27;20468;-88
2023/05/30 09:56:03;;;;;;;1.40;0.20;;;15.90;99.90;;;;;;5112726;27;20591;-88
2023/05/30 09:58:29;;;;;;;1.77;0.30;;;15.40;99.90;;;;;;5112116;27;20393;-87
2023/05/30 10:00:56;;;;;;;3.03;0.30;;;15.30;99.90;;;;;;5112482;27;20764;-89
2023/05/30 10:03:41;;;;;;;1.52;0.30;;;15.20;99.90;;;;;;5111902;27;20396;-87
2023/05/30 10:06:16;;;;;;;2.03;0.20;;;15.10;99.90;;;;;;5129053;27;20397;-90
2023/05/30 10:08:46;;;;;;;0.93;0.30;;;15.40;99.90;;;;;;5129883;27;20441;-87
2023/05/30 10:11:13;;;;;;;1.50;0.38;;;15.50;99.90;;;;;;5111853;27;20767;-87
2023/05/30 10:13:39;;;;;;;2.50;0.50;;;15.70;99.90;;;;;;5112224;27;20408;-88
2023/05/30 10:16:15;;;;;;;1.38;0.30;;;15.70;99.90;;;;;;5111920;27;20751;-88
2023/05/30 10:18:51;;;;;;;0.88;0.30;;;15.90;99.90;;;;;;5111747;27;20449;-87
2023/05/30 10:21:20;;;;;;;1.88;0.20;;;16.00;99.90;;;;;;5129190;27;20531;-88
2023/05/30 10:23:46;;;;;;;0.70;0.20;;;16.20;99.90;;;;;;5128036;27;20397;-88
2023/05/30 10:26:14;;;;;;;1.83;0.20;;;16.20;99.90;;;;;;5112072;27;20393;-88
2023/05/30 10:28:42;;;;;;;1.85;0.20;;;16.30;99.90;;;;;;5128547;27;20397;-88
2023/05/30 10:31:11;;;;;;;0.60;0.20;;;16.60;99.90;;;;;;5112128;27;20768;-87
2023/05/30 10:33:39;;;;;;;1.08;0.20;;;16.50;99.90;;;;;;5128796;27;20456;-88
2023/05/30 10:36:06;;;;;;;1.17;0.20;;;16.50;99.90;;;;;;5128332;27;20678;-88
2023/05/30 10:38:39;;;;;;;1.80;0.30;;;16.50;99.90;;;;;;5111693;27;20400;-88
2023/05/30 10:41:24;;;;;;;1.45;0.32;;;16.50;99.90;;;;;;5111013;27;20508;-87
2023/05/30 10:44:14;;;;;;;1.48;0.50;;;16.30;99.90;;;;;;5147855;27;20425;-87
2023/05/30 10:46:58;;;;;;;2.40;0.30;;;16.00;99.90;;;;;;5147273;27;20404;-87
2023/05/30 10:49:28;;;;;;;1.30;0.30;;;16.00;99.90;;;;;;5111200;27;20409;-88
2023/05/30 10:52:07;;;;;;;0.93;0.20;;;15.90;99.90;;;;;;5128851;27;20389;-89
2023/05/30 10:54:35;;;;;;;1.10;0.30;;;15.80;99.90;;;;;;5111009;27;20444;-87
2023/05/30 10:57:23;;;;;;;1.35;0.30;;;16.00;99.90;;;;;;5133282;27;20403;-88
2023/05/30 10:59:48;;;;;;;1.30;0.60;;;16.20;99.90;;;;;;5115488;27;20753;-88
2023/05/30 11:02:20;;;;;;;1.65;0.40;;;16.30;99.90;;;;;;5132082;27;20397;-89
2023/05/30 11:04:50;;;;;;;1.10;0.30;;;16.60;99.90;;;;;;5132959;27;20401;-87
2023/05/30 11:07:17;;;;;;;1.05;0.20;;;16.80;99.90;;;;;;5132064;27;20918;-89
2023/05/30 11:10:04;;;;;;;0.97;0.20;;;17.20;99.90;;;;;;5133307;27;20869;-88
2023/05/30 11:12:30;;;;;;;0.52;0.20;;;16.70;99.90;;;;;;5115157;27;20525;-88
2023/05/30 11:15:00;;;;;;;1.20;0.20;;;16.60;99.90;;;;;;5115045;27;20476;-87
2023/05/30 11:17:34;;;;;;;1.08;0.20;;;16.50;99.90;;;;;;5115589;27;20412;-88
2023/05/30 11:20:14;;;;;;;0.47;0.20;;;16.60;99.90;;;;;;5131525;27;20561;-88
2023/05/30 11:23:00;;;;;;;0.95;0.20;;;16.40;99.90;;;;;;5115426;27;20472;-88
2023/05/30 11:25:28;;;;;;;0.77;0.30;;;16.30;99.90;;;;;;5131378;27;20406;-88
2023/05/30 11:28:03;;;;;;;0.70;0.28;;;16.30;99.90;;;;;;5132198;27;20393;-87
2023/05/30 11:30:38;;;;;;;1.45;0.40;;;16.50;99.90;;;;;;5115495;27;20759;-88
2023/05/30 11:33:09;;;;;;;1.10;0.40;;;16.50;99.90;;;;;;5114647;27;20408;-88
2023/05/30 11:35:37;;;;;;;1.90;0.30;;;16.80;99.90;;;;;;5132094;27;20533;-88
2023/05/30 11:38:04;;;;;;;1.40;0.30;;;16.60;99.90;;;;;;5114440;27;20868;-87
2023/05/30 11:40:29;;;;;;;1.57;0.40;;;16.80;99.90;;;;;;5132077;27;20460;-88
2023/05/30 11:42:56;;;;;;;1.30;0.30;;;16.80;99.90;;;;;;5131854;27;20574;-87
2023/05/30 11:45:29;;;;;;;1.00;0.30;;;16.90;99.90;;;;;;5131346;27;20929;-88
2023/05/30 11:48:08;;;;;;;1.25;0.22;;;16.90;99.90;;;;;;5114624;27;20466;-88
2023/05/30 11:50:43;;;;;;;1.60;0.30;;;17.00;99.90;;;;;;5114118;27;20401;-88
2023/05/30 11:53:18;;;;;;;0.60;0.20;;;17.20;99.90;;;;;;5132165;27;20401;-88
2023/05/30 11:55:48;;;;;;;0.87;0.20;;;17.60;99.90;;;;;;5131739;27;20412;-87
2023/05/30 11:58:15;;;;;;;0.63;0.20;;;17.80;97.90;;;;;;5114045;27;20465;-88
2023/05/30 12:00:41;;;;;;;0.75;0.30;;;18.10;97.80;;;;;;5131676;27;20413;-88
2023/05/30 12:03:16;;;;;;;0.85;0.20;;;18.10;96.40;;;;;;5114522;27;20733;-89
2023/05/30 12:05:42;;;;;;;1.20;0.30;;;18.20;96.70;;;;;;5114909;27;20393;-90
2023/05/30 12:08:08;;;;;;;1.20;0.30;;;18.10;98.40;;;;;;5113520;27;20440;-89
2023/05/30 12:10:33;;;;;;;2.20;0.30;;;17.70;99.90;;;;;;5115078;27;20903;-88
2023/05/30 12:13:00;;;;;;;1.27;0.30;;;17.80;99.90;;;;;;5131247;27;20894;-87
2023/05/30 12:15:26;;;;;;;1.50;0.20;;;17.90;99.90;;;;;;5131339;27;20747;-88
2023/05/30 12:17:52;;;;;;;1.07;0.30;;;17.60;99.90;;;;;;5114435;27;20419;-88
2023/05/30 12:20:19;;;;;;;1.50;0.30;;;17.70;99.90;;;;;;5113467;27;20767;-88
2023/05/30 12:22:45;;;;;;;2.10;0.30;;;18.00;99.90;;;;;;5114614;27;20403;-90
2023/05/30 12:25:12;;;;;;;1.02;0.30;;;18.00;99.90;;;;;;5113968;27;20457;-90
2023/05/30 12:27:48;;;;;;;0.80;0.20;;;18.40;99.90;;;;;;5114537;27;20462;-88
2023/05/30 12:30:16;;;;;;;1.20;0.30;;;18.70;98.00;;;;;;5114147;27;20416;-88
2023/05/30 12:32:42;;;;;;;0.90;0.25;;;18.90;96.80;;;;;;5113997;27;20651;-89
2023/05/30 12:35:08;;;;;;;1.10;0.20;;;19.10;95.90;;;;;;5114457;27;20396;-89
2023/05/30 12:37:34;;;;;;;1.27;0.20;;;19.30;93.10;;;;;;5113224;27;20408;-88
2023/05/30 12:40:02;;;;;;;1.50;0.20;;;19.20;92.10;;;;;;5130807;27;20421;-88
2023/05/30 12:42:29;;;;;;;0.93;0.20;;;19.30;94.20;;;;;;5113155;27;20409;-89
2023/05/30 12:44:59;;;;;;;1.43;0.37;;;19.20;91.30;;;;;;5131152;27;20461;-90
2023/05/30 12:47:27;;;;;;;1.30;0.30;;;18.60;97.90;;;;;;5130899;27;20404;-88